Time;durP1;ratioP1;P1;durP2;ratioP2;P2;SDS_P1;SDS_P2;PMS_P1;PMS_P2;Temp;Humidity;BMP_temperature;BMP_pressure;BME280_temperature;BME280_humidity;BME280_pressure;Samples;Min_cycle;Max_cycle;Signal;HPM_P1;HPM_P2
2022/10/21 00:00:57;;;;;;;39.00;20.95;;;;;;;1.76;87.81;99657.92;4169250;84;21114;-81
2022/10/21 00:07:01;;;;;;;40.05;21.52;;;;;;;1.60;88.69;99668.77;4148437;84;21040;-82
2022/10/21 00:13:02;;;;;;;40.03;22.98;;;;;;;1.71;90.29;99675.56;4137681;84;21938;-82
2022/10/21 00:19:03;;;;;;;43.42;22.67;;;;;;;1.62;88.73;99659.83;4146403;84;21423;-82
2022/10/21 00:25:05;;;;;;;46.98;24.05;;;;;;;1.40;88.91;99648.39;4266654;81;22007;-82
2022/10/21 00:31:09;;;;;;;45.15;26.07;;;;;;;1.26;88.86;99634.09;4265507;82;21075;-82
2022/10/21 00:37:12;;;;;;;46.75;24.05;;;;;;;1.09;88.74;99623.62;4230934;82;21030;-83
2022/10/21 00:43:15;;;;;;;52.55;26.75;;;;;;;0.99;89.30;99611.67;4264812;81;21102;-80
2022/10/21 00:49:43;;;;;;;49.13;25.62;;;;;;;1.07;89.69;99594.81;4261842;82;20986;-84
2022/10/21 00:55:53;;;;;;;45.28;24.92;;;;;;;0.93;89.55;99575.13;4259572;82;21019;-82
2022/10/21 01:01:54;;;;;;;48.45;25.00;;;;;;;1.07;91.26;99590.77;4264914;81;21089;-82
2022/10/21 01:07:57;;;;;;;46.18;25.35;;;;;;;1.22;91.47;99595.89;4267777;82;20982;-83
2022/10/21 01:14:21;;;;;;;46.53;25.55;;;;;;;1.23;90.70;99575.90;4273598;81;20995;-82
2022/10/21 01:20:48;;;;;;;48.95;22.60;;;;;;;1.16;90.91;99566.08;4271345;82;21015;-83
2022/10/21 01:27:27;;;;;;;41.05;22.32;;;;;;;1.16;91.31;99572.81;4278344;81;20970;-83
2022/10/21 01:33:42;;;;;;;45.03;24.10;;;;;;;1.15;91.76;99582.80;4276388;81;21022;-83
2022/10/21 01:39:50;;;;;;;40.00;22.25;;;;;;;1.22;91.72;99591.27;4272393;81;21063;-83
2022/10/21 01:45:57;;;;;;;45.30;24.25;;;;;;;1.10;90.69;99583.42;4271206;82;21066;-83
2022/10/21 01:52:01;;;;;;;45.08;24.18;;;;;;;0.96;90.92;99576.68;4265542;82;21050;-83
2022/10/21 01:58:23;;;;;;;42.73;23.90;;;;;;;0.91;90.81;99568.69;4264783;82;21543;-82
2022/10/21 02:04:26;;;;;;;44.90;23.47;;;;;;;0.81;90.90;99558.11;4278317;81;21097;-83
2022/10/21 02:10:33;;;;;;;47.80;24.92;;;;;;;0.75;90.91;99575.44;4267797;82;21070;-82
2022/10/21 02:16:38;;;;;;;46.13;23.55;;;;;;;0.69;91.06;99565.84;4269951;81;21041;-82
2022/10/21 02:22:43;;;;;;;49.55;25.00;;;;;;;0.45;91.25;99532.89;4267304;82;20993;-82
2022/10/21 02:28:46;;;;;;;45.43;24.50;;;;;;;0.45;91.25;99532.89;4269993;82;21575;-82
2022/10/21 02:35:01;;;;;;;54.38;25.90;;;;;;;0.40;91.35;99542.93;4268522;81;21629;-82
2022/10/21 02:41:10;;;;;;;49.48;25.82;;;;;;;0.41;91.34;99552.06;4275390;81;21038;-84
2022/10/21 02:47:16;;;;;;;55.58;27.73;;;;;;;0.37;91.58;99543.52;4268447;82;21572;-82
2022/10/21 02:53:18;;;;;;;47.13;24.63;;;;;;;0.32;91.60;99520.70;4178117;83;21062;-81
2022/10/21 02:59:19;;;;;;;53.80;25.92;;;;;;;0.37;92.10;99515.25;4279056;82;21546;-81
2022/10/21 03:05:21;;;;;;;47.00;25.15;;;;;;;0.37;92.10;99515.25;4245090;80;123870;-82
2022/10/21 03:11:22;;;;;;;48.05;26.30;;;;;;;0.35;92.81;99521.46;4247783;81;21191;-81
2022/10/21 03:17:23;;;;;;;48.68;26.75;;;;;;;0.46;93.29;99522.35;4265379;81;21594;-81
2022/10/21 03:23:25;;;;;;;54.55;27.77;;;;;;;0.61;93.40;99524.77;4250915;81;20988;-80
2022/10/21 03:29:26;;;;;;;50.55;26.70;;;;;;;0.54;92.07;99510.90;4257167;80;21017;-80
2022/10/21 03:35:27;;;;;;;44.23;24.52;;;;;;;0.32;91.85;99499.17;4259070;81;21007;-81
2022/10/21 03:41:29;;;;;;;51.02;25.55;;;;;;;0.36;93.10;99513.09;4256955;81;21015;-81
2022/10/21 03:47:32;;;;;;;50.45;25.43;;;;;;;0.09;92.22;99504.14;4251611;81;21015;-83
2022/10/21 03:53:34;;;;;;;49.75;25.48;;;;;;;0.09;92.22;99504.14;4263037;81;20947;-81
2022/10/21 03:59:35;;;;;;;43.85;24.37;;;;;;;-0.02;92.02;99485.45;4258037;81;21017;-81
2022/10/21 04:05:36;;;;;;;53.38;27.40;;;;;;;-0.04;92.34;99482.27;4307607;80;20982;-80
2022/10/21 04:11:38;;;;;;;51.20;24.52;;;;;;;-0.21;91.72;99469.91;4313817;80;21006;-81
2022/10/21 04:17:41;;;;;;;52.00;28.70;;;;;;;-0.35;91.83;99466.36;4314366;80;21010;-80
2022/10/21 04:23:42;;;;;;;47.65;25.57;;;;;;;-0.38;91.93;99451.34;4254314;81;21043;-82
2022/10/21 04:29:43;;;;;;;47.38;26.23;;;;;;;-0.54;92.07;99435.98;4309964;80;21041;-81
2022/10/21 04:35:45;;;;;;;49.75;26.15;;;;;;;-0.20;94.18;99430.33;4327807;80;21069;-80
2022/10/21 04:41:49;;;;;;;55.27;27.10;;;;;;;-0.20;94.18;99430.33;4303784;80;21005;-79
2022/10/21 04:47:50;;;;;;;53.40;26.90;;;;;;;-0.16;93.69;99438.86;4310622;80;21028;-81
2022/10/21 04:53:52;;;;;;;49.30;26.75;;;;;;;-0.11;93.41;99436.66;4313642;80;21038;-80
2022/10/21 04:59:53;;;;;;;49.13;26.42;;;;;;;-0.02;93.80;99437.00;4295569;80;21049;-80
2022/10/21 05:05:55;;;;;;;48.68;26.15;;;;;;;-0.08;93.18;99432.03;4258107;80;21087;-80
2022/10/21 05:11:56;;;;;;;51.23;26.95;;;;;;;-0.26;93.25;99422.09;4246769;81;20982;-79
2022/10/21 05:17:58;;;;;;;56.90;28.35;;;;;;;-0.26;93.25;99422.09;4247088;81;21039;-80
2022/10/21 05:24:00;;;;;;;65.67;34.70;;;;;;;-0.24;93.04;99430.13;4242166;81;20971;-81
2022/10/21 05:30:03;;;;;;;121.67;69.17;;;;;;;-0.40;92.89;99430.11;4245632;81;22121;-80
2022/10/21 05:36:07;;;;;;;97.80;54.53;;;;;;;-0.40;93.47;99448.95;4255457;81;21047;-82
2022/10/21 05:42:08;;;;;;;90.57;45.98;;;;;;;-0.41;93.34;99443.30;4242134;81;21061;-80
2022/10/21 05:48:10;;;;;;;96.17;48.87;;;;;;;-0.36;93.22;99440.53;4251528;81;21400;-83
2022/10/21 05:54:12;;;;;;;82.20;44.23;;;;;;;-0.24;93.85;99450.31;4238202;81;21039;-80
2022/10/21 06:00:15;;;;;;;59.88;33.75;;;;;;;-0.18;93.64;99446.98;4245353;81;21583;-81
2022/10/21 06:06:17;;;;;;;64.72;32.33;;;;;;;-0.05;94.35;99447.02;4305428;80;21670;-82
2022/10/21 06:12:18;;;;;;;59.58;29.37;;;;;;;0.11;94.42;99439.48;4305249;80;21554;-80
2022/10/21 06:18:20;;;;;;;46.23;25.32;;;;;;;0.28;94.63;99416.05;4314925;80;21562;-81
2022/10/21 06:24:21;;;;;;;50.20;30.40;;;;;;;0.63;96.23;99459.80;4318854;80;21036;-83
2022/10/21 06:30:22;;;;;;;54.55;29.48;;;;;;;0.63;96.23;99459.80;4317484;80;21002;-82
2022/10/21 06:36:25;;;;;;;61.92;33.63;;;;;;;0.84;96.32;99486.08;4314714;80;21002;-82
2022/10/21 06:42:26;;;;;;;59.63;29.57;;;;;;;0.91;96.06;99442.56;4312808;80;21002;-82
2022/10/21 06:48:28;;;;;;;58.25;30.95;;;;;;;1.14;96.56;99465.80;4316162;80;21983;-80
2022/10/21 06:54:29;;;;;;;63.68;33.30;;;;;;;1.28;96.75;99480.06;4303836;80;21032;-82
2022/10/21 07:00:31;;;;;;;63.87;32.25;;;;;;;1.50;96.89;99467.97;4312053;80;21097;-82
2022/10/21 07:06:32;;;;;;;61.63;33.00;;;;;;;1.60;96.80;99473.13;4313214;80;21066;-82
2022/10/21 07:12:34;;;;;;;54.35;29.63;;;;;;;1.75;96.82;99478.19;4314643;80;21018;-82
2022/10/21 07:18:36;;;;;;;54.80;28.07;;;;;;;1.84;96.70;99479.59;4315040;80;21057;-82
2022/10/21 07:24:37;;;;;;;60.17;28.93;;;;;;;1.81;96.34;99474.27;4320690;80;21045;-82
2022/10/21 07:30:43;;;;;;;53.65;25.75;;;;;;;1.91;96.58;99465.91;4321372;80;21042;-82
2022/10/21 07:36:47;;;;;;;57.85;28.55;;;;;;;2.07;96.16;99469.06;4327162;80;20997;-83
2022/10/21 07:42:48;;;;;;;55.03;28.90;;;;;;;2.51;97.94;99456.82;4330851;80;22018;-83
2022/10/21 07:48:50;;;;;;;53.60;28.90;;;;;;;3.00;97.01;99448.44;4331735;80;20992;-83
2022/10/21 07:54:53;;;;;;;52.75;28.77;;;;;;;3.36;97.22;99432.75;4311168;80;21441;-83
2022/10/21 08:00:58;;;;;;;52.80;28.32;;;;;;;3.83;97.78;99425.58;4330217;80;21052;-83
2022/10/21 08:07:00;;;;;;;47.10;26.37;;;;;;;4.44;98.12;99405.61;4247654;80;21039;-84
2022/10/21 08:13:01;;;;;;;42.43;25.02;;;;;;;5.31;98.14;99399.38;4247061;81;21524;-85
2022/10/21 08:19:03;;;;;;;46.28;25.20;;;;;;;5.93;96.33;99383.08;4246433;81;20995;-84
2022/10/21 08:25:06;;;;;;;42.25;24.15;;;;;;;6.46;96.78;99379.45;4251867;81;21157;-85
2022/10/21 08:31:12;;;;;;;47.35;24.05;;;;;;;6.85;94.93;99377.43;4251844;81;21082;-84
2022/10/21 08:37:15;;;;;;;41.20;25.37;;;;;;;6.95;94.41;99372.90;4256539;80;21530;-83
2022/10/21 08:43:33;;;;;;;43.20;23.55;;;;;;;7.14;94.01;99360.27;4253044;80;21031;-84
2022/10/21 08:50:05;;;;;;;39.10;21.30;;;;;;;7.30;93.62;99346.73;4240247;81;21650;-84
2022/10/21 08:56:13;;;;;;;35.60;20.50;;;;;;;7.54;93.79;99340.66;4249273;81;21074;-84
2022/10/21 09:02:30;;;;;;;32.50;18.82;;;;;;;8.03;93.28;99341.23;4242973;81;21090;-84
2022/10/21 09:08:47;;;;;;;;;;;;;;;8.30;92.98;99331.43;4307265;81;21041;-84
2022/10/21 09:15:28;;;;;;;29.87;17.65;;;;;;;8.59;92.00;99333.70;4223845;81;20536;-84
2022/10/21 09:21:38;;;;;;;30.70;19.15;;;;;;;8.77;91.98;99313.86;4292670;81;21098;-83
2022/10/21 09:27:40;;;;;;;28.20;17.12;;;;;;;8.82;91.42;99313.59;4295681;81;21045;-83
2022/10/21 09:33:49;;;;;;;34.58;20.37;;;;;;;8.96;91.16;99304.36;4307095;81;20979;-83
2022/10/21 09:40:15;;;;;;;34.70;19.23;;;;;;;9.16;91.39;99293.67;4288463;81;21050;-83
2022/10/21 09:46:18;;;;;;;35.15;19.60;;;;;;;9.21;90.53;99286.57;4305974;81;21111;-83
2022/10/21 09:52:23;;;;;;;33.05;19.55;;;;;;;9.33;90.64;99273.36;4308739;80;20969;-85
2022/10/21 09:58:39;;;;;;;33.73;20.17;;;;;;;9.42;90.96;99265.16;4311786;81;20994;-84
2022/10/21 10:04:41;;;;;;;32.35;19.42;;;;;;;9.65;91.10;99249.39;4283841;80;21086;-83
2022/10/21 10:10:42;;;;;;;36.17;20.08;;;;;;;10.04;91.32;99244.03;4256270;81;21388;-83
2022/10/21 10:16:51;;;;;;;40.48;20.40;;;;;;;10.39;91.11;99222.17;4134554;84;21054;-83
2022/10/21 10:23:03;;;;;;;36.15;20.15;;;;;;;10.78;90.76;99209.83;4171594;83;21098;-83
2022/10/21 10:29:27;;;;;;;35.03;20.48;;;;;;;11.04;90.21;99198.81;4153569;83;20994;-84
2022/10/21 10:35:33;;;;;;;31.87;20.15;;;;;;;11.09;89.61;99190.27;4154441;83;21053;-84
2022/10/21 10:41:38;;;;;;;37.98;19.82;;;;;;;11.15;88.94;99185.23;4155579;83;21614;-83
2022/10/21 10:47:56;;;;;;;33.08;19.12;;;;;;;11.19;88.73;99169.64;4166653;83;21010;-84
2022/10/21 10:54:24;;;;;;;27.70;16.07;;;;;;;11.22;88.70;99155.19;4180865;83;21015;-83
2022/10/21 11:00:29;;;;;;;28.42;17.67;;;;;;;11.22;88.46;99152.45;4158836;83;21031;-84
2022/10/21 11:06:42;;;;;;;37.60;20.75;;;;;;;11.21;88.29;99142.66;4124082;83;34467;-84
2022/10/21 11:12:52;;;;;;;29.87;17.85;;;;;;;11.17;87.84;99141.02;4008684;87;21650;-82
2022/10/21 11:19:38;;;;;;;29.92;16.52;;;;;;;11.12;87.52;99127.08;4095624;86;20979;-84
2022/10/21 11:25:48;;;;;;;29.63;16.97;;;;;;;11.09;86.96;99110.82;4104924;86;21660;-84
2022/10/21 11:32:01;;;;;;;37.88;18.60;;;;;;;11.13;86.68;99088.95;4093475;85;21051;-84
2022/10/21 11:38:20;;;;;;;32.40;19.05;;;;;;;11.20;86.50;99084.89;4092984;86;21040;-84
2022/10/21 11:44:55;;;;;;;33.38;18.95;;;;;;;11.33;85.98;99067.59;4034467;86;21132;-84
2022/10/21 11:51:20;;;;;;;34.70;18.75;;;;;;;11.45;85.79;99063.22;4089030;86;21075;-84
2022/10/21 11:57:48;;;;;;;32.08;19.00;;;;;;;11.49;85.51;99063.45;4098616;85;22132;-84
2022/10/21 12:04:24;;;;;;;33.15;19.75;;;;;;;11.61;85.86;99059.61;3978751;86;21099;-84
2022/10/21 12:10:35;;;;;;;34.38;19.50;;;;;;;11.77;85.51;99052.73;4170939;84;21047;-84
2022/10/21 12:16:36;;;;;;;32.17;18.98;;;;;;;11.78;85.09;99025.50;4156598;83;20992;-84
2022/10/21 12:22:41;;;;;;;35.85;19.45;;;;;;;11.77;85.16;99025.31;4135903;83;21018;-84
2022/10/21 12:29:16;;;;;;;36.85;21.00;;;;;;;11.80;85.19;99019.63;4149104;83;21697;-84
2022/10/21 12:35:29;;;;;;;34.10;19.87;;;;;;;11.85;84.97;99009.11;4164533;83;21015;-85
2022/10/21 12:41:36;;;;;;;38.40;18.42;;;;;;;11.90;84.74;99005.98;4148863;84;21004;-84
2022/10/21 12:47:44;;;;;;;28.32;17.25;;;;;;;11.91;84.46;99003.45;4146558;84;22058;-84
2022/10/21 12:54:09;;;;;;;36.10;17.67;;;;;;;11.93;84.17;99003.08;4142993;84;21602;-84
2022/10/21 13:00:31;;;;;;;30.32;17.02;;;;;;;11.90;84.03;98984.03;4162920;84;22433;-84
2022/10/21 13:06:54;;;;;;;28.57;15.98;;;;;;;11.89;83.85;98976.98;4107307;84;21104;-85
2022/10/21 13:13:29;;;;;;;27.27;14.80;;;;;;;12.01;83.81;98988.99;4012594;87;21028;-84
2022/10/21 13:19:34;;;;;;;28.17;15.10;;;;;;;12.22;83.63;98981.45;4009603;87;21604;-84
2022/10/21 13:25:35;;;;;;;25.00;14.58;;;;;;;12.37;83.33;98996.83;3988688;87;21008;-84
2022/10/21 13:31:38;;;;;;;26.00;13.93;;;;;;;12.38;82.99;98983.28;4127963;84;21030;-84
2022/10/21 13:37:51;;;;;;;21.93;13.55;;;;;;;12.43;82.87;98980.17;4078201;85;21074;-84
2022/10/21 13:44:00;;;;;;;22.25;12.47;;;;;;;12.48;82.64;98957.84;4068253;84;21123;-84
2022/10/21 13:50:17;;;;;;;22.73;12.05;;;;;;;12.57;82.64;98959.63;4043956;86;21032;-84
2022/10/21 13:56:31;;;;;;;18.02;11.88;;;;;;;12.59;82.61;98955.91;4115501;84;21085;-85
2022/10/21 14:02:33;;;;;;;24.32;13.13;;;;;;;12.61;82.45;98951.59;4144250;85;21038;-85
2022/10/21 14:08:44;;;;;;;22.35;12.15;;;;;;;12.56;82.14;98950.59;4201092;83;21083;-84
2022/10/21 14:14:47;;;;;;;24.07;12.13;;;;;;;12.53;82.01;98958.23;4211096;82;21148;-84
2022/10/21 14:20:48;;;;;;;21.97;12.50;;;;;;;12.48;81.87;98959.22;4209164;83;21023;-84
2022/10/21 14:26:51;;;;;;;22.30;11.73;;;;;;;12.45;82.00;98957.22;4222769;83;21027;-84
2022/10/21 14:32:54;;;;;;;28.12;13.40;;;;;;;12.37;82.10;98969.38;4219299;82;21441;-84
2022/10/21 14:39:05;;;;;;;22.87;11.33;;;;;;;12.27;81.71;98971.48;4203890;83;21019;-85
2022/10/21 14:45:13;;;;;;;22.13;10.55;;;;;;;12.21;82.24;98973.83;4114672;85;21040;-84
2022/10/21 14:51:18;;;;;;;19.73;11.28;;;;;;;12.13;82.18;98957.70;4117221;84;21019;-84
2022/10/21 14:57:34;;;;;;;17.02;10.15;;;;;;;12.10;82.41;98963.39;4115063;84;21063;-84
2022/10/21 15:03:40;;;;;;;23.50;9.93;;;;;;;12.02;82.37;98954.92;4145210;85;21106;-85
2022/10/21 15:10:08;;;;;;;26.37;9.83;;;;;;;11.91;82.47;98967.80;4030928;85;21065;-85
2022/10/21 15:16:18;;;;;;;17.37;9.78;;;;;;;11.72;82.69;98974.13;4180281;83;20987;-84
2022/10/21 15:22:36;;;;;;;15.72;9.35;;;;;;;11.64;83.01;98980.16;4164225;83;21089;-84
2022/10/21 15:28:40;;;;;;;24.10;12.73;;;;;;;11.59;83.14;98987.34;4168065;83;21032;-84
2022/10/21 15:34:41;;;;;;;20.25;13.50;;;;;;;11.48;83.27;98989.22;4084435;85;21051;-84
2022/10/21 15:40:42;;;;;;;17.67;12.03;;;;;;;11.31;83.42;98991.23;4098933;85;21055;-84
2022/10/21 15:46:46;;;;;;;20.02;12.70;;;;;;;11.24;83.79;99003.53;4078637;85;21087;-84
2022/10/21 15:52:49;;;;;;;25.25;14.53;;;;;;;11.21;84.10;99006.23;4085409;84;21075;-84
2022/10/21 15:58:50;;;;;;;27.32;13.98;;;;;;;10.99;84.06;99004.66;4012463;87;21572;-84
2022/10/21 16:04:53;;;;;;;33.90;15.10;;;;;;;10.89;84.37;99012.20;4158144;84;22192;-84
2022/10/21 16:10:54;;;;;;;34.30;15.83;;;;;;;10.76;84.60;99019.10;4157693;83;22064;-85
2022/10/21 16:16:57;;;;;;;29.82;16.62;;;;;;;10.76;85.06;99017.73;4152733;84;21519;-84
2022/10/21 16:22:59;;;;;;;32.53;20.25;;;;;;;10.72;85.02;99019.66;4157611;84;21062;-84
2022/10/21 16:29:00;;;;;;;39.08;20.15;;;;;;;10.69;85.58;99027.25;4155346;84;21066;-84
2022/10/21 16:35:02;;;;;;;40.80;22.07;;;;;;;10.60;85.79;99017.16;4094873;85;21062;-84
2022/10/21 16:41:14;;;;;;;35.13;18.92;;;;;;;10.55;86.12;99027.66;4187011;83;21502;-84
2022/10/21 16:47:19;;;;;;;44.60;20.95;;;;;;;10.44;86.69;99027.55;4217905;83;20995;-84
2022/10/21 16:53:21;;;;;;;44.38;24.07;;;;;;;10.44;87.38;99034.39;4186917;83;21504;-84
2022/10/21 16:59:23;;;;;;;45.80;24.95;;;;;;;10.37;87.81;99041.13;4215688;83;21027;-84
2022/10/21 17:05:25;;;;;;;51.45;27.30;;;;;;;10.32;88.29;99035.21;4095798;82;9999756;-84
2022/10/21 17:11:38;;;;;;;42.70;24.98;;;;;;;10.27;88.71;99041.01;4206583;83;22092;-85
2022/10/21 17:17:40;;;;;;;56.28;28.67;;;;;;;10.19;89.32;99053.01;4201189;83;21071;-84
2022/10/21 17:23:42;;;;;;;58.15;30.55;;;;;;;10.07;89.60;99037.60;4211502;83;22083;-84
2022/10/21 17:29:44;;;;;;;91.95;47.75;;;;;;;9.97;90.10;99055.20;4208424;83;20995;-84
2022/10/21 17:35:45;;;;;;;64.60;32.13;;;;;;;9.83;90.25;99055.80;4197986;83;21004;-85
2022/10/21 17:41:46;;;;;;;65.75;35.03;;;;;;;9.81;91.04;99047.17;4212645;82;21967;-84
2022/10/21 17:47:48;;;;;;;85.75;41.37;;;;;;;9.73;91.48;99056.41;4190531;83;21050;-84
2022/10/21 17:53:53;;;;;;;79.72;38.02;;;;;;;9.70;91.68;99046.79;4204629;83;21634;-84
2022/10/21 17:59:54;;;;;;;83.03;42.10;;;;;;;9.67;91.67;99046.16;4211774;83;21025;-84
2022/10/21 18:05:56;;;;;;;59.00;32.83;;;;;;;9.64;92.18;99045.53;4210634;83;22051;-84
2022/10/21 18:11:57;;;;;;;50.70;28.62;;;;;;;9.60;92.21;99046.06;4165454;83;20998;-85
2022/10/21 18:17:59;;;;;;;46.53;27.82;;;;;;;9.57;92.70;99039.97;4158172;84;21536;-84
2022/10/21 18:24:01;;;;;;;49.77;27.30;;;;;;;9.44;92.65;99032.55;4166314;82;20990;-84
2022/10/21 18:30:06;;;;;;;48.73;27.73;;;;;;;9.36;93.19;99034.95;4173126;84;21487;-84
2022/10/21 18:36:11;;;;;;;57.50;33.55;;;;;;;9.28;93.32;99016.86;4163499;84;21086;-84
2022/10/21 18:42:12;;;;;;;48.02;28.67;;;;;;;9.24;93.60;99017.36;4137973;83;20951;-84
2022/10/21 18:48:13;;;;;;;63.78;34.35;;;;;;;9.22;93.89;99016.36;4148964;84;21986;-84
2022/10/21 18:54:17;;;;;;;68.60;35.80;;;;;;;9.17;94.04;99013.95;4168391;84;21037;-84
2022/10/21 19:00:19;;;;;;;76.67;40.90;;;;;;;9.09;94.22;99005.43;4167642;82;21030;-84
2022/10/21 19:06:45;;;;;;;68.78;38.53;;;;;;;9.06;94.64;99006.73;4154018;84;21591;-84
2022/10/21 19:12:46;;;;;;;69.20;38.92;;;;;;;9.04;94.67;99003.56;4045225;86;21642;-84
2022/10/21 19:18:48;;;;;;;63.15;37.45;;;;;;;9.00;95.03;99004.89;3992862;86;21107;-84
2022/10/21 19:24:49;;;;;;;65.17;36.98;;;;;;;8.90;95.17;99005.48;4046974;86;21095;-85
2022/10/21 19:30:50;;;;;;;65.92;37.65;;;;;;;8.92;95.71;99003.75;3988382;86;21099;-84
2022/10/21 19:36:52;;;;;;;59.95;33.55;;;;;;;8.92;95.91;99000.45;4042252;86;21732;-84
2022/10/21 19:42:53;;;;;;;65.10;35.92;;;;;;;8.96;96.32;98995.83;4023037;87;21023;-84
2022/10/21 19:48:55;;;;;;;83.82;42.67;;;;;;;8.98;96.51;98991.38;3966310;86;21037;-84
2022/10/21 19:54:56;;;;;;;77.85;41.83;;;;;;;8.96;96.48;98969.09;4003826;87;21019;-84
2022/10/21 20:01:05;;;;;;;73.70;42.08;;;;;;;8.92;96.62;98963.60;4024485;86;21096;-84
2022/10/21 20:07:07;;;;;;;112.00;59.25;;;;;;;8.85;96.71;98959.94;4063912;84;20996;-84
2022/10/21 20:13:10;;;;;;;94.42;51.13;;;;;;;8.73;96.96;98952.73;4148315;84;21539;-84
2022/10/21 20:19:12;;;;;;;89.40;51.83;;;;;;;8.76;97.63;98926.64;4151238;84;21056;-84
2022/10/21 20:25:14;;;;;;;90.20;50.70;;;;;;;8.78;97.74;98909.34;4159844;83;21590;-84
2022/10/21 20:31:17;;;;;;;75.72;41.55;;;;;;;8.73;97.76;98887.23;4152174;83;21528;-84
2022/10/21 20:37:18;;;;;;;68.40;37.93;;;;;;;8.64;97.97;98884.54;4133089;83;21043;-83
2022/10/21 20:43:20;;;;;;;70.70;40.43;;;;;;;8.67;98.61;98887.91;4171484;84;21065;-84
2022/10/21 20:49:21;;;;;;;64.75;35.63;;;;;;;8.68;98.73;98882.64;4155494;84;21026;-84
2022/10/21 20:55:22;;;;;;;58.00;32.78;;;;;;;8.70;98.90;98894.80;4166463;84;20975;-83
2022/10/21 21:01:35;;;;;;;54.35;31.10;;;;;;;8.69;99.15;98906.08;4083314;85;21022;-84
2022/10/21 21:07:36;;;;;;;62.90;34.30;;;;;;;8.69;99.21;98897.29;4172136;82;21484;-83
2022/10/21 21:13:40;;;;;;;63.98;36.58;;;;;;;8.57;98.75;98896.11;4259482;82;21065;-84
2022/10/21 21:19:41;;;;;;;58.75;34.30;;;;;;;8.52;99.18;98920.97;4236893;82;21106;-83
2022/10/21 21:25:43;;;;;;;51.45;31.15;;;;;;;8.56;99.48;98912.28;4225183;82;21406;-83
2022/10/21 21:31:44;;;;;;;57.10;33.70;;;;;;;8.55;99.58;98924.33;4224328;83;20951;-83
2022/10/21 21:37:45;;;;;;;57.45;32.93;;;;;;;8.54;99.71;98921.41;4225488;83;21067;-84
2022/10/21 21:43:50;;;;;;;61.73;36.03;;;;;;;8.56;100.00;98912.28;4123594;85;21399;-83
2022/10/21 21:49:51;;;;;;;59.55;35.03;;;;;;;8.61;100.00;98918.81;4126669;85;21441;-84
2022/10/21 21:55:52;;;;;;;61.53;36.75;;;;;;;8.63;100.00;98913.76;4094937;86;21017;-83
2022/10/21 22:01:53;;;;;;;62.55;35.70;;;;;;;8.61;100.00;98911.19;4097434;86;21555;-83
2022/10/21 22:07:55;;;;;;;64.07;36.20;;;;;;;8.61;100.00;98898.91;4088040;86;21103;-84
2022/10/21 22:13:57;;;;;;;62.90;35.03;;;;;;;8.57;100.00;98900.77;4085841;85;21663;-83
2022/10/21 22:19:58;;;;;;;56.75;32.53;;;;;;;8.53;100.00;98898.01;4148090;83;21570;-84
2022/10/21 22:26:00;;;;;;;65.03;35.58;;;;;;;8.45;100.00;98916.77;4143930;84;22467;-83
2022/10/21 22:32:02;;;;;;;70.75;39.18;;;;;;;8.32;100.00;98932.27;4094780;85;21102;-83
2022/10/21 22:38:03;;;;;;;66.72;35.73;;;;;;;8.26;100.00;98935.88;4112905;84;21979;-83
2022/10/21 22:44:10;;;;;;;77.65;41.37;;;;;;;8.18;100.00;98935.50;4093018;84;21559;-83
2022/10/21 22:50:11;;;;;;;89.28;47.35;;;;;;;8.05;100.00;98945.56;4100842;85;21038;-84
2022/10/21 22:56:15;;;;;;;81.87;46.23;;;;;;;8.06;100.00;98918.50;4093656;85;21524;-83
2022/10/21 23:02:18;;;;;;;80.62;43.92;;;;;;;8.09;100.00;98927.33;4100854;86;21087;-83
2022/10/21 23:08:20;;;;;;;87.72;45.88;;;;;;;8.10;100.00;98927.56;4075203;86;21164;-85
2022/10/21 23:14:21;;;;;;;71.37;39.78;;;;;;;8.09;100.00;98911.77;4040306;87;21053;-84
2022/10/21 23:20:23;;;;;;;77.82;43.13;;;;;;;8.03;100.00;98915.34;4040792;87;21073;-84
2022/10/21 23:26:25;;;;;;;76.65;44.60;;;;;;;7.96;100.00;98922.03;4043896;87;21062;-84
2022/10/21 23:32:26;;;;;;;78.52;41.95;;;;;;;7.86;100.00;98920.45;4040469;87;21076;-84
2022/10/21 23:38:28;;;;;;;72.70;42.88;;;;;;;7.70;100.00;98909.63;4039212;87;21966;-84
2022/10/21 23:44:29;;;;;;;74.03;42.62;;;;;;;7.56;100.00;98907.16;4035629;87;21120;-83
2022/10/21 23:50:31;;;;;;;68.50;40.25;;;;;;;7.51;100.00;98916.97;4030035;87;21079;-84
2022/10/21 23:56:33;;;;;;;70.17;41.55;;;;;;;7.40;100.00;98924.92;4035093;87;21040;-84
